Pagrindinis puslapis
METAR-TAF:

METAR-TAF

Oro uostai :

San Fernando, Argentina

platuma: 34-27-11S, ilguma: 058-35-23W, Aukštis: 3 m

Dabartinis oras

Ataskaita buvo paskelbta 1 valandą ir 13 minutes, ne 22:00 UTC
Vėjas 15 kt iš Pietų
Temperatūra 22°C
Drėgmė 43%
Slėgis 1022 hPa
Matomumas 10 km arba daugiau
nėra debesų žemiau 1500 m ir nėra kamuolinių lietaus debesų

METAR: SADF 212200Z 18015KT CAVOK 22/09 Q1022

Laikas: 20:13 (23:13 UTC)

Prognozė

Ataskaita buvo paskelbta 6 valandos ir 13 minutes, ne 17:00 UTC
Prognozė galioja nuo 21 metu 18 UTC su 22 metu 18 UTC
Vėjas 15 kt iš Pietų su gūsio iki 25 kt
Matomumas 10 km arba daugiau
Išsisklaidę debesys ne aukštis 3000 ft
Tapsmas
nuo 22 metu 00 UTC su 22 metu 02 UTC
Vėjas 15 kt iš Pietų/Pietryčių
Matomumas 10 km arba daugiau
nėra debesų žemiau 1500 m ir nėra kamuolinių lietaus debesų

TAF: SADF 211700Z 2118/2218 19015G25KT 9999 SCT030 TX24/2218Z TN10/2210Z BECMG 2200/2202 16015KT CAVOK

Orai ataskaitas ir orų prognozės (METAR, TAF).

turimą stotys yra geltonos ir raudonos taškus žemėlapyje.

Perkelti pele per norėdami pamatyti stoties vardą.

Tada spustelėkite, norėdami matyti oro stebėjimo ir prognozės.

Norėdami pakeisti žemėlapį: spustelėkite ant žalios mygtukų su juodo kryžiaus žemyn,; žalią mygtuką su brūkšneliu, jei norite nutolinti; arba žalių rodyklių gretimoms žemėlapius.


METAR-TAF: